sensor_id;sensor_type;location;lat;lon;timestamp;P1;durP1;ratioP1;P2;durP2;ratioP2
68010;SDS011;54794;48.348;7.878;2022-09-29T00:01:01;1.73;;;0.68;;
68010;SDS011;54794;48.348;7.878;2022-09-29T00:03:29;2.28;;;0.80;;
68010;SDS011;54794;48.348;7.878;2022-09-29T00:05:56;1.52;;;0.68;;
68010;SDS011;54794;48.348;7.878;2022-09-29T00:08:24;3.47;;;0.90;;
68010;SDS011;54794;48.348;7.878;2022-09-29T00:10:53;3.30;;;0.60;;
68010;SDS011;54794;48.348;7.878;2022-09-29T00:13:21;1.38;;;0.57;;
68010;SDS011;54794;48.348;7.878;2022-09-29T00:15:55;3.20;;;0.75;;
68010;SDS011;54794;48.348;7.878;2022-09-29T00:18:25;3.65;;;0.77;;
68010;SDS011;54794;48.348;7.878;2022-09-29T00:21:00;2.53;;;0.77;;
68010;SDS011;54794;48.348;7.878;2022-09-29T00:23:37;1.85;;;0.70;;
68010;SDS011;54794;48.348;7.878;2022-09-29T00:28:35;1.00;;;0.80;;
68010;SDS011;54794;48.348;7.878;2022-09-29T00:31:05;2.42;;;0.70;;
68010;SDS011;54794;48.348;7.878;2022-09-29T00:33:36;1.48;;;0.68;;
68010;SDS011;54794;48.348;7.878;2022-09-29T00:36:04;0.95;;;0.55;;
68010;SDS011;54794;48.348;7.878;2022-09-29T00:38:35;0.90;;;0.70;;
68010;SDS011;54794;48.348;7.878;2022-09-29T00:41:02;0.93;;;0.60;;
68010;SDS011;54794;48.348;7.878;2022-09-29T00:46:19;1.27;;;0.70;;
68010;SDS011;54794;48.348;7.878;2022-09-29T00:52:19;1.35;;;0.60;;
68010;SDS011;54794;48.348;7.878;2022-09-29T00:54:53;1.67;;;0.73;;
68010;SDS011;54794;48.348;7.878;2022-09-29T00:57:28;0.95;;;0.70;;
68010;SDS011;54794;48.348;7.878;2022-09-29T01:02:41;2.65;;;0.80;;
68010;SDS011;54794;48.348;7.878;2022-09-29T01:05:51;1.23;;;0.60;;
68010;SDS011;54794;48.348;7.878;2022-09-29T01:11:04;1.88;;;0.80;;
68010;SDS011;54794;48.348;7.878;2022-09-29T01:13:32;4.35;;;0.70;;
68010;SDS011;54794;48.348;7.878;2022-09-29T01:15:59;0.50;;;0.38;;
68010;SDS011;54794;48.348;7.878;2022-09-29T01:18:27;2.55;;;1.17;;
68010;SDS011;54794;48.348;7.878;2022-09-29T01:43:55;1.70;;;0.90;;
68010;SDS011;54794;48.348;7.878;2022-09-29T01:49:22;4.18;;;0.80;;
68010;SDS011;54794;48.348;7.878;2022-09-29T01:57:43;3.22;;;0.82;;
68010;SDS011;54794;48.348;7.878;2022-09-29T02:00:31;0.85;;;0.57;;
68010;SDS011;54794;48.348;7.878;2022-09-29T02:03:10;2.22;;;0.70;;
68010;SDS011;54794;48.348;7.878;2022-09-29T02:05:56;2.75;;;1.13;;
68010;SDS011;54794;48.348;7.878;2022-09-29T02:08:29;1.58;;;0.70;;
68010;SDS011;54794;48.348;7.878;2022-09-29T02:11:03;1.05;;;0.47;;
68010;SDS011;54794;48.348;7.878;2022-09-29T02:13:37;1.98;;;0.68;;
68010;SDS011;54794;48.348;7.878;2022-09-29T02:16:15;3.05;;;0.80;;
68010;SDS011;54794;48.348;7.878;2022-09-29T02:18:53;1.90;;;0.90;;
68010;SDS011;54794;48.348;7.878;2022-09-29T02:21:32;2.67;;;0.80;;
68010;SDS011;54794;48.348;7.878;2022-09-29T02:23:59;1.58;;;0.80;;
68010;SDS011;54794;48.348;7.878;2022-09-29T02:26:27;2.60;;;0.82;;
68010;SDS011;54794;48.348;7.878;2022-09-29T02:29:02;1.58;;;0.85;;
68010;SDS011;54794;48.348;7.878;2022-09-29T02:31:31;2.75;;;0.63;;
68010;SDS011;54794;48.348;7.878;2022-09-29T02:34:01;2.67;;;0.70;;
68010;SDS011;54794;48.348;7.878;2022-09-29T02:47:53;2.17;;;0.77;;
68010;SDS011;54794;48.348;7.878;2022-09-29T02:53:53;0.60;;;0.50;;
68010;SDS011;54794;48.348;7.878;2022-09-29T02:56:59;1.30;;;0.70;;
68010;SDS011;54794;48.348;7.878;2022-09-29T03:04:53;1.20;;;0.55;;
68010;SDS011;54794;48.348;7.878;2022-09-29T03:07:20;1.50;;;0.70;;
68010;SDS011;54794;48.348;7.878;2022-09-29T03:09:47;1.70;;;0.73;;
68010;SDS011;54794;48.348;7.878;2022-09-29T03:12:15;6.30;;;1.08;;
68010;SDS011;54794;48.348;7.878;2022-09-29T03:14:43;2.83;;;0.88;;
68010;SDS011;54794;48.348;7.878;2022-09-29T03:17:10;1.00;;;0.70;;
68010;SDS011;54794;48.348;7.878;2022-09-29T03:19:37;1.73;;;1.00;;
68010;SDS011;54794;48.348;7.878;2022-09-29T03:22:04;2.83;;;0.80;;
68010;SDS011;54794;48.348;7.878;2022-09-29T03:24:31;2.33;;;0.73;;
68010;SDS011;54794;48.348;7.878;2022-09-29T03:26:57;1.67;;;0.70;;
68010;SDS011;54794;48.348;7.878;2022-09-29T03:29:24;1.73;;;0.73;;
68010;SDS011;54794;48.348;7.878;2022-09-29T03:31:51;3.58;;;0.70;;
68010;SDS011;54794;48.348;7.878;2022-09-29T03:34:18;1.42;;;0.60;;
68010;SDS011;54794;48.348;7.878;2022-09-29T03:36:45;1.27;;;0.80;;
68010;SDS011;54794;48.348;7.878;2022-09-29T03:39:12;1.77;;;0.73;;
68010;SDS011;54794;48.348;7.878;2022-09-29T03:41:39;1.67;;;0.77;;
68010;SDS011;54794;48.348;7.878;2022-09-29T03:44:06;1.77;;;0.57;;
68010;SDS011;54794;48.348;7.878;2022-09-29T03:46:33;1.63;;;0.77;;
68010;SDS011;54794;48.348;7.878;2022-09-29T03:49:00;2.40;;;0.77;;
68010;SDS011;54794;48.348;7.878;2022-09-29T03:51:27;1.73;;;0.73;;
68010;SDS011;54794;48.348;7.878;2022-09-29T03:53:54;1.77;;;0.82;;
68010;SDS011;54794;48.348;7.878;2022-09-29T03:56:20;1.73;;;0.60;;
68010;SDS011;54794;48.348;7.878;2022-09-29T03:58:47;1.30;;;0.80;;
68010;SDS011;54794;48.348;7.878;2022-09-29T04:03:42;1.17;;;0.77;;
68010;SDS011;54794;48.348;7.878;2022-09-29T04:06:09;2.38;;;0.93;;
68010;SDS011;54794;48.348;7.878;2022-09-29T04:08:36;2.55;;;1.38;;
68010;SDS011;54794;48.348;7.878;2022-09-29T04:11:03;3.65;;;0.77;;
68010;SDS011;54794;48.348;7.878;2022-09-29T04:13:31;4.00;;;0.88;;
68010;SDS011;54794;48.348;7.878;2022-09-29T04:18:28;1.48;;;0.77;;
68010;SDS011;54794;48.348;7.878;2022-09-29T04:20:57;1.77;;;0.90;;
68010;SDS011;54794;48.348;7.878;2022-09-29T04:23:27;1.83;;;0.60;;
68010;SDS011;54794;48.348;7.878;2022-09-29T04:25:58;1.40;;;0.57;;
68010;SDS011;54794;48.348;7.878;2022-09-29T04:28:31;2.60;;;0.65;;
68010;SDS011;54794;48.348;7.878;2022-09-29T04:31:01;1.02;;;0.70;;
68010;SDS011;54794;48.348;7.878;2022-09-29T04:35:56;1.23;;;0.70;;
68010;SDS011;54794;48.348;7.878;2022-09-29T04:38:25;3.17;;;0.75;;
68010;SDS011;54794;48.348;7.878;2022-09-29T04:40:52;1.33;;;0.88;;
68010;SDS011;54794;48.348;7.878;2022-09-29T04:43:19;1.75;;;1.00;;
68010;SDS011;54794;48.348;7.878;2022-09-29T04:45:46;2.00;;;1.10;;
68010;SDS011;54794;48.348;7.878;2022-09-29T04:48:13;8.05;;;4.47;;
68010;SDS011;54794;48.348;7.878;2022-09-29T04:50:40;11.30;;;6.03;;
68010;SDS011;54794;48.348;7.878;2022-09-29T04:53:09;11.60;;;5.45;;
68010;SDS011;54794;48.348;7.878;2022-09-29T04:55:37;8.77;;;4.55;;
68010;SDS011;54794;48.348;7.878;2022-09-29T04:58:04;7.57;;;4.30;;
68010;SDS011;54794;48.348;7.878;2022-09-29T05:00:31;4.22;;;2.20;;
68010;SDS011;54794;48.348;7.878;2022-09-29T05:05:26;3.80;;;1.40;;
68010;SDS011;54794;48.348;7.878;2022-09-29T05:07:53;2.20;;;1.25;;
68010;SDS011;54794;48.348;7.878;2022-09-29T05:10:20;4.47;;;2.23;;
68010;SDS011;54794;48.348;7.878;2022-09-29T05:12:49;2.75;;;1.17;;
68010;SDS011;54794;48.348;7.878;2022-09-29T05:15:17;2.75;;;1.25;;
68010;SDS011;54794;48.348;7.878;2022-09-29T05:17:51;3.17;;;0.93;;
68010;SDS011;54794;48.348;7.878;2022-09-29T05:20:18;1.80;;;0.80;;
68010;SDS011;54794;48.348;7.878;2022-09-29T05:22:44;1.27;;;0.90;;
68010;SDS011;54794;48.348;7.878;2022-09-29T05:25:11;1.73;;;1.20;;
68010;SDS011;54794;48.348;7.878;2022-09-29T05:27:38;1.20;;;0.80;;
68010;SDS011;54794;48.348;7.878;2022-09-29T05:30:05;3.78;;;1.10;;
68010;SDS011;54794;48.348;7.878;2022-09-29T05:32:33;1.35;;;0.93;;
68010;SDS011;54794;48.348;7.878;2022-09-29T05:34:59;2.20;;;1.20;;
68010;SDS011;54794;48.348;7.878;2022-09-29T05:37:27;3.53;;;1.20;;
68010;SDS011;54794;48.348;7.878;2022-09-29T05:39:54;2.07;;;1.20;;
68010;SDS011;54794;48.348;7.878;2022-09-29T05:42:21;5.05;;;2.55;;
68010;SDS011;54794;48.348;7.878;2022-09-29T05:44:50;2.92;;;1.48;;
68010;SDS011;54794;48.348;7.878;2022-09-29T05:47:17;3.40;;;1.50;;
68010;SDS011;54794;48.348;7.878;2022-09-29T05:49:44;4.63;;;1.20;;
68010;SDS011;54794;48.348;7.878;2022-09-29T05:52:11;1.63;;;0.90;;
68010;SDS011;54794;48.348;7.878;2022-09-29T05:54:38;1.33;;;1.08;;
68010;SDS011;54794;48.348;7.878;2022-09-29T05:57:05;4.90;;;1.27;;
68010;SDS011;54794;48.348;7.878;2022-09-29T05:59:32;1.63;;;1.03;;
68010;SDS011;54794;48.348;7.878;2022-09-29T06:01:59;2.58;;;1.45;;
68010;SDS011;54794;48.348;7.878;2022-09-29T06:04:26;1.80;;;1.33;;
68010;SDS011;54794;48.348;7.878;2022-09-29T06:06:52;5.72;;;1.92;;
68010;SDS011;54794;48.348;7.878;2022-09-29T06:11:47;4.43;;;2.00;;
68010;SDS011;54794;48.348;7.878;2022-09-29T06:14:14;4.00;;;1.47;;
68010;SDS011;54794;48.348;7.878;2022-09-29T06:16:40;11.13;;;4.47;;
68010;SDS011;54794;48.348;7.878;2022-09-29T06:19:07;6.78;;;3.10;;
68010;SDS011;54794;48.348;7.878;2022-09-29T06:21:34;3.27;;;2.00;;
68010;SDS011;54794;48.348;7.878;2022-09-29T06:24:02;2.95;;;2.10;;
68010;SDS011;54794;48.348;7.878;2022-09-29T06:26:32;9.45;;;4.95;;
68010;SDS011;54794;48.348;7.878;2022-09-29T06:28:59;9.47;;;3.40;;
68010;SDS011;54794;48.348;7.878;2022-09-29T06:31:26;5.37;;;2.43;;
68010;SDS011;54794;48.348;7.878;2022-09-29T06:33:56;4.65;;;2.55;;
68010;SDS011;54794;48.348;7.878;2022-09-29T06:36:28;3.45;;;1.75;;
68010;SDS011;54794;48.348;7.878;2022-09-29T06:39:24;4.03;;;2.75;;
68010;SDS011;54794;48.348;7.878;2022-09-29T06:41:52;2.20;;;1.75;;
68010;SDS011;54794;48.348;7.878;2022-09-29T06:44:21;6.85;;;4.40;;
68010;SDS011;54794;48.348;7.878;2022-09-29T06:46:51;7.38;;;4.43;;
68010;SDS011;54794;48.348;7.878;2022-09-29T06:49:19;6.45;;;4.10;;
68010;SDS011;54794;48.348;7.878;2022-09-29T06:51:47;3.72;;;1.92;;
68010;SDS011;54794;48.348;7.878;2022-09-29T06:54:15;2.95;;;1.30;;
68010;SDS011;54794;48.348;7.878;2022-09-29T06:56:46;1.63;;;1.00;;
68010;SDS011;54794;48.348;7.878;2022-09-29T06:59:18;2.35;;;1.05;;
68010;SDS011;54794;48.348;7.878;2022-09-29T07:01:45;1.92;;;1.10;;
68010;SDS011;54794;48.348;7.878;2022-09-29T07:04:17;2.85;;;0.93;;
68010;SDS011;54794;48.348;7.878;2022-09-29T07:06:45;2.20;;;0.90;;
68010;SDS011;54794;48.348;7.878;2022-09-29T07:09:13;1.10;;;0.90;;
68010;SDS011;54794;48.348;7.878;2022-09-29T07:11:44;1.67;;;1.23;;
68010;SDS011;54794;48.348;7.878;2022-09-29T07:14:18;2.58;;;1.30;;
68010;SDS011;54794;48.348;7.878;2022-09-29T07:16:51;2.75;;;1.27;;
68010;SDS011;54794;48.348;7.878;2022-09-29T07:19:18;2.92;;;1.10;;
68010;SDS011;54794;48.348;7.878;2022-09-29T07:24:13;2.28;;;1.30;;
68010;SDS011;54794;48.348;7.878;2022-09-29T07:26:41;2.70;;;1.02;;
68010;SDS011;54794;48.348;7.878;2022-09-29T07:29:08;1.20;;;1.02;;
68010;SDS011;54794;48.348;7.878;2022-09-29T07:31:40;4.82;;;2.25;;
68010;SDS011;54794;48.348;7.878;2022-09-29T07:34:17;3.30;;;1.60;;
68010;SDS011;54794;48.348;7.878;2022-09-29T07:36:45;2.72;;;1.10;;
68010;SDS011;54794;48.348;7.878;2022-09-29T07:39:12;2.03;;;1.07;;
68010;SDS011;54794;48.348;7.878;2022-09-29T07:41:38;2.50;;;1.30;;
68010;SDS011;54794;48.348;7.878;2022-09-29T07:44:05;4.17;;;1.80;;
68010;SDS011;54794;48.348;7.878;2022-09-29T07:46:32;5.63;;;1.40;;
68010;SDS011;54794;48.348;7.878;2022-09-29T07:48:59;4.22;;;1.63;;
68010;SDS011;54794;48.348;7.878;2022-09-29T07:51:26;2.43;;;1.07;;
68010;SDS011;54794;48.348;7.878;2022-09-29T07:53:53;2.03;;;1.10;;
68010;SDS011;54794;48.348;7.878;2022-09-29T07:56:20;1.80;;;0.90;;
68010;SDS011;54794;48.348;7.878;2022-09-29T07:58:48;1.92;;;1.00;;
68010;SDS011;54794;48.348;7.878;2022-09-29T08:01:17;3.83;;;2.60;;
68010;SDS011;54794;48.348;7.878;2022-09-29T08:03:49;5.55;;;4.07;;
68010;SDS011;54794;48.348;7.878;2022-09-29T08:06:20;3.45;;;2.50;;
68010;SDS011;54794;48.348;7.878;2022-09-29T08:08:51;5.85;;;4.55;;
68010;SDS011;54794;48.348;7.878;2022-09-29T08:11:29;3.28;;;2.20;;
68010;SDS011;54794;48.348;7.878;2022-09-29T08:13:59;5.55;;;3.83;;
68010;SDS011;54794;48.348;7.878;2022-09-29T08:16:27;4.07;;;2.13;;
68010;SDS011;54794;48.348;7.878;2022-09-29T08:18:55;2.75;;;1.65;;
68010;SDS011;54794;48.348;7.878;2022-09-29T08:21:22;3.60;;;2.60;;
68010;SDS011;54794;48.348;7.878;2022-09-29T08:23:49;2.20;;;1.50;;
68010;SDS011;54794;48.348;7.878;2022-09-29T08:26:17;2.07;;;1.40;;
68010;SDS011;54794;48.348;7.878;2022-09-29T08:29:04;2.75;;;1.15;;
68010;SDS011;54794;48.348;7.878;2022-09-29T08:31:34;2.08;;;0.75;;
68010;SDS011;54794;48.348;7.878;2022-09-29T08:34:03;1.40;;;0.80;;
68010;SDS011;54794;48.348;7.878;2022-09-29T08:36:31;1.33;;;0.70;;
68010;SDS011;54794;48.348;7.878;2022-09-29T08:38:58;0.90;;;0.50;;
68010;SDS011;54794;48.348;7.878;2022-09-29T08:47:24;2.05;;;0.82;;
68010;SDS011;54794;48.348;7.878;2022-09-29T08:53:31;2.40;;;0.90;;
68010;SDS011;54794;48.348;7.878;2022-09-29T08:56:06;1.45;;;0.77;;
68010;SDS011;54794;48.348;7.878;2022-09-29T08:58:40;2.90;;;0.98;;
68010;SDS011;54794;48.348;7.878;2022-09-29T09:01:28;1.50;;;1.00;;
68010;SDS011;54794;48.348;7.878;2022-09-29T09:09:53;1.90;;;0.90;;
68010;SDS011;54794;48.348;7.878;2022-09-29T09:13:03;2.72;;;0.90;;
68010;SDS011;54794;48.348;7.878;2022-09-29T09:16:10;3.60;;;1.40;;
68010;SDS011;54794;48.348;7.878;2022-09-29T09:21:46;5.50;;;0.98;;
68010;SDS011;54794;48.348;7.878;2022-09-29T09:24:36;1.83;;;0.93;;
68010;SDS011;54794;48.348;7.878;2022-09-29T09:27:15;1.58;;;1.10;;
68010;SDS011;54794;48.348;7.878;2022-09-29T09:29:53;3.30;;;1.15;;
68010;SDS011;54794;48.348;7.878;2022-09-29T09:32:46;1.58;;;1.00;;
68010;SDS011;54794;48.348;7.878;2022-09-29T09:38:27;2.17;;;0.70;;
68010;SDS011;54794;48.348;7.878;2022-09-29T09:41:13;2.13;;;0.77;;
68010;SDS011;54794;48.348;7.878;2022-09-29T09:43:45;1.55;;;0.80;;
68010;SDS011;54794;48.348;7.878;2022-09-29T09:46:25;1.38;;;0.82;;
68010;SDS011;54794;48.348;7.878;2022-09-29T09:49:20;1.10;;;0.75;;
68010;SDS011;54794;48.348;7.878;2022-09-29T09:51:56;1.30;;;0.73;;
68010;SDS011;54794;48.348;7.878;2022-09-29T09:54:44;1.40;;;0.80;;
68010;SDS011;54794;48.348;7.878;2022-09-29T10:02:46;1.83;;;0.80;;
68010;SDS011;54794;48.348;7.878;2022-09-29T10:05:23;1.25;;;0.80;;
68010;SDS011;54794;48.348;7.878;2022-09-29T10:07:59;1.85;;;0.98;;
68010;SDS011;54794;48.348;7.878;2022-09-29T10:10:27;2.40;;;1.10;;
68010;SDS011;54794;48.348;7.878;2022-09-29T10:12:57;2.63;;;1.10;;
68010;SDS011;54794;48.348;7.878;2022-09-29T10:15:36;2.22;;;0.85;;
68010;SDS011;54794;48.348;7.878;2022-09-29T10:18:19;2.13;;;1.00;;
68010;SDS011;54794;48.348;7.878;2022-09-29T10:21:21;1.43;;;0.70;;
68010;SDS011;54794;48.348;7.878;2022-09-29T10:24:02;3.63;;;1.10;;
68010;SDS011;54794;48.348;7.878;2022-09-29T10:26:42;3.15;;;1.05;;
68010;SDS011;54794;48.348;7.878;2022-09-29T10:29:22;3.08;;;0.75;;
68010;SDS011;54794;48.348;7.878;2022-09-29T10:35:14;1.38;;;0.80;;
68010;SDS011;54794;48.348;7.878;2022-09-29T10:38:15;1.33;;;0.73;;
68010;SDS011;54794;48.348;7.878;2022-09-29T10:40:53;1.30;;;1.00;;
68010;SDS011;54794;48.348;7.878;2022-09-29T10:43:36;2.70;;;1.20;;
68010;SDS011;54794;48.348;7.878;2022-09-29T10:46:32;1.30;;;0.77;;
68010;SDS011;54794;48.348;7.878;2022-09-29T10:49:21;3.28;;;0.80;;
68010;SDS011;54794;48.348;7.878;2022-09-29T10:54:29;2.55;;;1.15;;
68010;SDS011;54794;48.348;7.878;2022-09-29T10:57:12;3.90;;;0.93;;
68010;SDS011;54794;48.348;7.878;2022-09-29T10:59:45;3.15;;;0.98;;
68010;SDS011;54794;48.348;7.878;2022-09-29T11:02:17;6.15;;;4.82;;
68010;SDS011;54794;48.348;7.878;2022-09-29T11:05:14;5.07;;;2.40;;
68010;SDS011;54794;48.348;7.878;2022-09-29T11:07:46;1.75;;;1.30;;
68010;SDS011;54794;48.348;7.878;2022-09-29T11:10:32;1.73;;;1.05;;
68010;SDS011;54794;48.348;7.878;2022-09-29T11:13:15;3.80;;;1.20;;
68010;SDS011;54794;48.348;7.878;2022-09-29T11:15:49;2.17;;;1.10;;
68010;SDS011;54794;48.348;7.878;2022-09-29T11:20:51;1.58;;;0.73;;
68010;SDS011;54794;48.348;7.878;2022-09-29T11:29:14;1.60;;;0.80;;
68010;SDS011;54794;48.348;7.878;2022-09-29T11:32:01;0.85;;;0.70;;
68010;SDS011;54794;48.348;7.878;2022-09-29T11:40:40;1.15;;;0.73;;
68010;SDS011;54794;48.348;7.878;2022-09-29T11:57:39;2.58;;;1.02;;
68010;SDS011;54794;48.348;7.878;2022-09-29T12:00:13;1.60;;;0.77;;
68010;SDS011;54794;48.348;7.878;2022-09-29T12:03:05;1.17;;;0.80;;
68010;SDS011;54794;48.348;7.878;2022-09-29T12:09:05;1.48;;;0.90;;
68010;SDS011;54794;48.348;7.878;2022-09-29T12:14:59;2.65;;;1.08;;
68010;SDS011;54794;48.348;7.878;2022-09-29T12:17:41;2.88;;;0.93;;
68010;SDS011;54794;48.348;7.878;2022-09-29T12:23:00;2.20;;;0.73;;
68010;SDS011;54794;48.348;7.878;2022-09-29T12:25:36;0.95;;;0.47;;
68010;SDS011;54794;48.348;7.878;2022-09-29T12:28:12;1.15;;;0.60;;
68010;SDS011;54794;48.348;7.878;2022-09-29T12:30:46;1.67;;;0.65;;
68010;SDS011;54794;48.348;7.878;2022-09-29T12:33:43;0.90;;;0.57;;
68010;SDS011;54794;48.348;7.878;2022-09-29T12:48:34;0.85;;;0.30;;
68010;SDS011;54794;48.348;7.878;2022-09-29T12:51:30;0.50;;;0.30;;
68010;SDS011;54794;48.348;7.878;2022-09-29T12:56:57;0.77;;;0.38;;
68010;SDS011;54794;48.348;7.878;2022-09-29T13:05:43;1.48;;;0.30;;
68010;SDS011;54794;48.348;7.878;2022-09-29T13:29:32;0.98;;;0.43;;
68010;SDS011;54794;48.348;7.878;2022-09-29T13:32:13;1.13;;;0.60;;
68010;SDS011;54794;48.348;7.878;2022-09-29T13:34:45;0.80;;;0.40;;
68010;SDS011;54794;48.348;7.878;2022-09-29T13:37:20;0.80;;;0.30;;
68010;SDS011;54794;48.348;7.878;2022-09-29T13:42:38;2.05;;;0.32;;
68010;SDS011;54794;48.348;7.878;2022-09-29T13:47:58;2.33;;;0.88;;
68010;SDS011;54794;48.348;7.878;2022-09-29T13:50:57;0.50;;;0.30;;
68010;SDS011;54794;48.348;7.878;2022-09-29T13:54:12;0.28;;;0.20;;
68010;SDS011;54794;48.348;7.878;2022-09-29T13:56:47;1.05;;;0.40;;
68010;SDS011;54794;48.348;7.878;2022-09-29T14:02:33;1.00;;;0.40;;
68010;SDS011;54794;48.348;7.878;2022-09-29T14:10:21;1.27;;;0.40;;
68010;SDS011;54794;48.348;7.878;2022-09-29T14:12:58;1.20;;;0.50;;
68010;SDS011;54794;48.348;7.878;2022-09-29T14:15:38;2.40;;;0.95;;
68010;SDS011;54794;48.348;7.878;2022-09-29T14:18:23;0.43;;;0.30;;
68010;SDS011;54794;48.348;7.878;2022-09-29T14:21:08;0.60;;;0.40;;
68010;SDS011;54794;48.348;7.878;2022-09-29T14:35:22;2.58;;;0.43;;
68010;SDS011;54794;48.348;7.878;2022-09-29T14:43:49;1.42;;;0.22;;
68010;SDS011;54794;48.348;7.878;2022-09-29T15:04:47;1.15;;;0.40;;
68010;SDS011;54794;48.348;7.878;2022-09-29T15:09:49;1.10;;;0.70;;
68010;SDS011;54794;48.348;7.878;2022-09-29T15:12:27;3.80;;;0.80;;
68010;SDS011;54794;48.348;7.878;2022-09-29T15:14:57;1.02;;;0.60;;
68010;SDS011;54794;48.348;7.878;2022-09-29T15:26:17;1.45;;;0.60;;
68010;SDS011;54794;48.348;7.878;2022-09-29T15:28:45;0.57;;;0.38;;
68010;SDS011;54794;48.348;7.878;2022-09-29T15:31:15;1.20;;;0.40;;
68010;SDS011;54794;48.348;7.878;2022-09-29T15:33:46;1.60;;;0.60;;
68010;SDS011;54794;48.348;7.878;2022-09-29T15:38:52;0.88;;;0.40;;
68010;SDS011;54794;48.348;7.878;2022-09-29T15:41:24;1.00;;;0.60;;
68010;SDS011;54794;48.348;7.878;2022-09-29T15:51:56;0.57;;;0.28;;
68010;SDS011;54794;48.348;7.878;2022-09-29T15:54:33;1.70;;;0.38;;
68010;SDS011;54794;48.348;7.878;2022-09-29T15:57:06;2.40;;;0.70;;
68010;SDS011;54794;48.348;7.878;2022-09-29T16:05:33;1.38;;;0.50;;
68010;SDS011;54794;48.348;7.878;2022-09-29T16:08:18;0.47;;;0.30;;
68010;SDS011;54794;48.348;7.878;2022-09-29T16:10:49;1.38;;;0.50;;
68010;SDS011;54794;48.348;7.878;2022-09-29T16:13:29;1.90;;;0.60;;
68010;SDS011;54794;48.348;7.878;2022-09-29T16:15:59;1.20;;;0.63;;
68010;SDS011;54794;48.348;7.878;2022-09-29T16:18:40;2.92;;;0.52;;
68010;SDS011;54794;48.348;7.878;2022-09-29T16:21:18;1.52;;;0.70;;
68010;SDS011;54794;48.348;7.878;2022-09-29T16:24:03;0.85;;;0.40;;
68010;SDS011;54794;48.348;7.878;2022-09-29T16:26:47;1.00;;;0.52;;
68010;SDS011;54794;48.348;7.878;2022-09-29T16:31:59;0.77;;;0.50;;
68010;SDS011;54794;48.348;7.878;2022-09-29T16:38:18;1.20;;;0.50;;
68010;SDS011;54794;48.348;7.878;2022-09-29T16:40:58;1.80;;;0.70;;
68010;SDS011;54794;48.348;7.878;2022-09-29T16:43:31;2.67;;;1.85;;
68010;SDS011;54794;48.348;7.878;2022-09-29T16:46:00;8.60;;;4.50;;
68010;SDS011;54794;48.348;7.878;2022-09-29T16:48:35;15.40;;;11.48;;
68010;SDS011;54794;48.348;7.878;2022-09-29T16:51:11;6.63;;;4.40;;
68010;SDS011;54794;48.348;7.878;2022-09-29T16:54:03;3.25;;;2.28;;
68010;SDS011;54794;48.348;7.878;2022-09-29T16:56:30;4.82;;;1.85;;
68010;SDS011;54794;48.348;7.878;2022-09-29T16:59:10;2.60;;;1.40;;
68010;SDS011;54794;48.348;7.878;2022-09-29T17:01:41;1.77;;;0.70;;
68010;SDS011;54794;48.348;7.878;2022-09-29T17:04:11;3.08;;;1.05;;
68010;SDS011;54794;48.348;7.878;2022-09-29T17:06:45;1.73;;;0.80;;
68010;SDS011;54794;48.348;7.878;2022-09-29T17:09:15;1.20;;;0.80;;
68010;SDS011;54794;48.348;7.878;2022-09-29T17:11:50;3.05;;;0.80;;
68010;SDS011;54794;48.348;7.878;2022-09-29T17:14:16;0.70;;;0.70;;
68010;SDS011;54794;48.348;7.878;2022-09-29T17:16:44;1.52;;;0.85;;
68010;SDS011;54794;48.348;7.878;2022-09-29T17:19:11;1.13;;;0.60;;
68010;SDS011;54794;48.348;7.878;2022-09-29T17:21:38;3.10;;;0.60;;
68010;SDS011;54794;48.348;7.878;2022-09-29T17:24:05;2.00;;;0.70;;
68010;SDS011;54794;48.348;7.878;2022-09-29T17:29:29;1.50;;;0.73;;
68010;SDS011;54794;48.348;7.878;2022-09-29T17:31:56;1.67;;;0.90;;
68010;SDS011;54794;48.348;7.878;2022-09-29T17:34:23;4.22;;;0.98;;
68010;SDS011;54794;48.348;7.878;2022-09-29T17:36:57;2.20;;;0.77;;
68010;SDS011;54794;48.348;7.878;2022-09-29T17:39:27;1.00;;;0.80;;
68010;SDS011;54794;48.348;7.878;2022-09-29T17:41:54;1.88;;;1.00;;
68010;SDS011;54794;48.348;7.878;2022-09-29T17:44:22;1.85;;;1.00;;
68010;SDS011;54794;48.348;7.878;2022-09-29T17:46:50;0.95;;;0.73;;
68010;SDS011;54794;48.348;7.878;2022-09-29T17:49:26;1.73;;;0.80;;
68010;SDS011;54794;48.348;7.878;2022-09-29T17:51:53;1.63;;;0.80;;
68010;SDS011;54794;48.348;7.878;2022-09-29T17:54:19;2.23;;;0.83;;
68010;SDS011;54794;48.348;7.878;2022-09-29T17:56:52;2.42;;;0.95;;
68010;SDS011;54794;48.348;7.878;2022-09-29T17:59:19;0.85;;;0.65;;
68010;SDS011;54794;48.348;7.878;2022-09-29T18:01:46;1.00;;;0.70;;
68010;SDS011;54794;48.348;7.878;2022-09-29T18:04:15;2.17;;;1.00;;
68010;SDS011;54794;48.348;7.878;2022-09-29T18:06:42;2.63;;;1.03;;
68010;SDS011;54794;48.348;7.878;2022-09-29T18:09:13;1.40;;;0.90;;
68010;SDS011;54794;48.348;7.878;2022-09-29T18:11:42;2.40;;;1.25;;
68010;SDS011;54794;48.348;7.878;2022-09-29T18:14:09;0.98;;;0.68;;
68010;SDS011;54794;48.348;7.878;2022-09-29T18:16:36;1.58;;;0.95;;
68010;SDS011;54794;48.348;7.878;2022-09-29T18:19:05;1.27;;;1.10;;
68010;SDS011;54794;48.348;7.878;2022-09-29T18:21:42;1.55;;;0.90;;
68010;SDS011;54794;48.348;7.878;2022-09-29T18:24:09;3.08;;;0.82;;
68010;SDS011;54794;48.348;7.878;2022-09-29T18:26:36;1.40;;;0.90;;
68010;SDS011;54794;48.348;7.878;2022-09-29T18:29:14;1.50;;;0.88;;
68010;SDS011;54794;48.348;7.878;2022-09-29T18:31:44;1.58;;;0.90;;
68010;SDS011;54794;48.348;7.878;2022-09-29T18:34:13;2.10;;;0.88;;
68010;SDS011;54794;48.348;7.878;2022-09-29T18:36:42;1.88;;;1.05;;
68010;SDS011;54794;48.348;7.878;2022-09-29T18:41:38;4.57;;;0.95;;
68010;SDS011;54794;48.348;7.878;2022-09-29T18:44:12;2.23;;;1.20;;
68010;SDS011;54794;48.348;7.878;2022-09-29T18:46:43;2.50;;;1.08;;
68010;SDS011;54794;48.348;7.878;2022-09-29T18:49:11;3.25;;;1.08;;
68010;SDS011;54794;48.348;7.878;2022-09-29T18:51:39;2.95;;;1.38;;
68010;SDS011;54794;48.348;7.878;2022-09-29T18:54:06;1.63;;;1.13;;
68010;SDS011;54794;48.348;7.878;2022-09-29T18:56:34;2.88;;;1.08;;
68010;SDS011;54794;48.348;7.878;2022-09-29T18:59:01;2.58;;;1.13;;
68010;SDS011;54794;48.348;7.878;2022-09-29T19:01:31;3.53;;;2.05;;
68010;SDS011;54794;48.348;7.878;2022-09-29T19:03:58;5.80;;;3.10;;
68010;SDS011;54794;48.348;7.878;2022-09-29T19:06:24;5.93;;;3.00;;
68010;SDS011;54794;48.348;7.878;2022-09-29T19:08:51;4.50;;;2.63;;
68010;SDS011;54794;48.348;7.878;2022-09-29T19:11:19;4.90;;;2.70;;
68010;SDS011;54794;48.348;7.878;2022-09-29T19:13:49;3.67;;;2.00;;
68010;SDS011;54794;48.348;7.878;2022-09-29T19:16:19;3.20;;;1.77;;
68010;SDS011;54794;48.348;7.878;2022-09-29T19:18:48;4.13;;;1.70;;
68010;SDS011;54794;48.348;7.878;2022-09-29T19:21:15;5.23;;;1.80;;
68010;SDS011;54794;48.348;7.878;2022-09-29T19:23:42;3.33;;;1.73;;
68010;SDS011;54794;48.348;7.878;2022-09-29T19:26:16;5.43;;;1.80;;
68010;SDS011;54794;48.348;7.878;2022-09-29T19:28:47;3.63;;;1.77;;
68010;SDS011;54794;48.348;7.878;2022-09-29T19:31:16;2.03;;;1.35;;
68010;SDS011;54794;48.348;7.878;2022-09-29T19:33:46;3.25;;;1.95;;
68010;SDS011;54794;48.348;7.878;2022-09-29T19:36:15;2.88;;;1.50;;
68010;SDS011;54794;48.348;7.878;2022-09-29T19:38:46;2.47;;;1.35;;
68010;SDS011;54794;48.348;7.878;2022-09-29T19:41:14;4.03;;;1.67;;
68010;SDS011;54794;48.348;7.878;2022-09-29T19:43:45;2.97;;;1.35;;
68010;SDS011;54794;48.348;7.878;2022-09-29T19:46:13;2.17;;;1.40;;
68010;SDS011;54794;48.348;7.878;2022-09-29T19:48:42;3.33;;;1.30;;
68010;SDS011;54794;48.348;7.878;2022-09-29T19:53:59;2.65;;;1.30;;
68010;SDS011;54794;48.348;7.878;2022-09-29T19:56:37;4.95;;;1.70;;
68010;SDS011;54794;48.348;7.878;2022-09-29T19:59:17;4.15;;;1.48;;
68010;SDS011;54794;48.348;7.878;2022-09-29T20:01:57;1.55;;;1.02;;
68010;SDS011;54794;48.348;7.878;2022-09-29T20:04:27;3.75;;;1.55;;
68010;SDS011;54794;48.348;7.878;2022-09-29T20:06:58;3.33;;;1.40;;